Time;durP1;ratioP1;P1;durP2;ratioP2;P2;SDS_P1;SDS_P2;PMS_P1;PMS_P2;Temp;Humidity;BMP_temperature;BMP_pressure;BME280_temperature;BME280_humidity;BME280_pressure;Samples;Min_cycle;Max_cycle;Signal;HPM_P1;HPM_P2
2022/09/18 00:01:16;;;;;;;5.90;3.70;;;;;;;13.94;62.72;97812.48;238562;1191;140032;-58
2022/09/18 00:06:23;;;;;;;5.70;3.10;;;;;;;13.95;62.91;97806.27;238723;1190;139397;-57
2022/09/18 00:11:32;;;;;;;6.40;3.50;;;;;;;13.98;63.00;97801.75;238825;1190;139221;-58
2022/09/18 00:16:35;;;;;;;6.20;3.10;;;;;;;13.92;62.98;97799.11;238571;1192;138971;-58
2022/09/18 00:21:43;;;;;;;5.80;3.10;;;;;;;13.85;63.27;97791.76;238507;1192;139195;-58
2022/09/18 00:26:47;;;;;;;5.90;3.30;;;;;;;13.76;63.62;97801.92;238668;1192;138825;-59
2022/09/18 00:31:50;;;;;;;5.70;3.00;;;;;;;13.65;63.46;97797.94;238742;1191;139543;-59
2022/09/18 00:36:53;;;;;;;6.30;2.90;;;;;;;13.59;63.83;97802.22;238299;1191;140283;-59
2022/09/18 00:41:56;;;;;;;4.80;2.40;;;;;;;13.55;63.94;97805.33;238573;1191;139749;-58
2022/09/18 00:47:08;;;;;;;4.80;2.70;;;;;;;13.52;64.08;97800.62;238680;1190;139201;-58
2022/09/18 00:52:13;;;;;;;4.60;2.20;;;;;;;13.51;64.37;97804.84;238806;1190;139117;-59
2022/09/18 00:57:21;;;;;;;5.70;2.60;;;;;;;13.39;64.06;97802.02;238728;1190;142385;-57
2022/09/18 01:02:24;;;;;;;4.80;2.20;;;;;;;13.30;64.22;97803.38;238745;1192;139201;-58
2022/09/18 01:07:41;;;;;;;4.80;2.10;;;;;;;13.25;64.64;97798.42;238783;1190;139817;-59
2022/09/18 01:12:56;;;;;;;6.90;2.30;;;;;;;13.23;64.62;97804.02;238609;1190;139311;-58
2022/09/18 01:18:14;;;;;;;5.30;2.50;;;;;;;13.20;64.68;97796.58;238831;1190;138820;-58
2022/09/18 01:23:59;;;;;;;6.10;2.50;;;;;;;13.11;64.76;97796.39;238647;1191;140410;-58
2022/09/18 01:29:21;;;;;;;5.00;2.50;;;;;;;13.02;64.83;97797.21;238346;1191;139343;-59
2022/09/18 01:34:49;;;;;;;4.50;2.40;;;;;;;12.93;65.07;97799.98;238370;1191;140515;-58
2022/09/18 01:40:05;;;;;;;5.20;2.10;;;;;;;12.85;65.22;97802.00;238559;1190;140125;-59
2022/09/18 01:45:13;;;;;;;7.00;2.60;;;;;;;12.85;65.65;97804.12;238737;1190;139673;-57
2022/09/18 01:50:18;;;;;;;5.90;2.30;;;;;;;12.90;65.62;97807.17;238498;1192;139430;-56
2022/09/18 01:55:26;;;;;;;4.90;2.60;;;;;;;12.93;65.50;97814.21;238502;1191;138981;-57
2022/09/18 02:00:30;;;;;;;4.90;2.40;;;;;;;12.91;65.69;97816.20;238782;1190;138724;-57
2022/09/18 02:05:39;;;;;;;7.30;2.40;;;;;;;12.84;65.60;97818.98;238715;1191;139326;-57
2022/09/18 02:10:52;;;;;;;7.20;2.10;;;;;;;12.83;65.49;97823.35;238712;1190;139944;-58
2022/09/18 02:16:02;;;;;;;6.60;2.10;;;;;;;12.83;65.49;97823.86;238595;1191;139392;-58
2022/09/18 02:21:11;;;;;;;6.70;2.70;;;;;;;12.81;65.71;97822.09;238443;1191;139676;-57
2022/09/18 02:26:17;;;;;;;6.90;1.90;;;;;;;12.79;65.46;97824.94;238427;1191;139167;-58
2022/09/18 02:31:20;;;;;;;5.20;2.50;;;;;;;12.74;65.74;97826.23;238589;1190;139734;-58
2022/09/18 02:36:39;;;;;;;4.50;1.80;;;;;;;12.72;65.48;97825.23;238763;1190;139332;-54
2022/09/18 02:41:54;;;;;;;4.50;1.90;;;;;;;12.69;65.47;97832.09;238551;1192;139950;-57
2022/09/18 02:47:14;;;;;;;5.50;2.00;;;;;;;12.68;65.55;97833.73;238515;1190;139735;-56
2022/09/18 02:52:53;;;;;;;5.00;2.00;;;;;;;12.65;65.55;97838.29;238825;1190;139394;-55
2022/09/18 02:58:17;;;;;;;5.50;2.00;;;;;;;12.61;65.51;97839.94;238519;1190;138910;-54
2022/09/18 03:03:30;;;;;;;7.60;2.80;;;;;;;12.58;65.59;97843.36;238466;1191;138905;-57
2022/09/18 03:08:37;;;;;;;8.00;2.00;;;;;;;12.55;65.74;97843.41;238509;1192;138986;-57
2022/09/18 03:13:41;;;;;;;7.60;2.40;;;;;;;12.59;65.66;97845.98;238807;1190;140721;-56
2022/09/18 03:18:46;;;;;;;5.50;2.00;;;;;;;12.62;65.61;97844.67;238289;1190;139213;-58
2022/09/18 03:23:50;;;;;;;6.20;2.30;;;;;;;12.64;65.53;97842.29;238812;1192;139161;-57
2022/09/18 03:28:58;;;;;;;6.60;2.50;;;;;;;12.63;65.74;97846.12;238616;1190;138792;-58
2022/09/18 03:34:03;;;;;;;6.70;2.60;;;;;;;12.58;65.49;97849.05;238702;1191;139665;-57
2022/09/18 03:39:06;;;;;;;5.90;2.40;;;;;;;12.53;65.58;97856.92;238642;1190;139291;-57
2022/09/18 03:44:10;;;;;;;6.70;2.60;;;;;;;12.46;65.67;97859.01;238630;1191;140001;-55
2022/09/18 03:49:16;;;;;;;7.20;2.90;;;;;;;12.43;65.59;97864.29;238481;1191;139846;-57
2022/09/18 03:54:19;;;;;;;7.50;3.10;;;;;;;12.43;65.54;97864.83;238560;1191;139044;-55
2022/09/18 03:59:40;;;;;;;8.00;2.60;;;;;;;12.45;65.72;97864.45;238650;1191;139232;-55
2022/09/18 04:05:10;;;;;;;9.30;3.00;;;;;;;12.40;65.51;97866.85;238817;1190;139589;-56
2022/09/18 04:10:32;;;;;;;7.00;3.10;;;;;;;12.34;65.76;97871.83;238679;1190;139993;-57
2022/09/18 04:15:35;;;;;;;10.70;3.40;;;;;;;12.28;65.57;97880.89;238419;1192;139438;-57
2022/09/18 04:20:38;;;;;;;11.00;3.40;;;;;;;12.26;65.36;97882.65;238523;1190;140120;-57
2022/09/18 04:25:42;;;;;;;11.20;3.70;;;;;;;12.28;65.63;97882.46;238712;1190;139967;-56
2022/09/18 04:30:47;;;;;;;9.00;3.40;;;;;;;12.29;65.49;97882.80;238400;1191;139508;-57
2022/09/18 04:35:51;;;;;;;10.60;4.00;;;;;;;12.27;65.78;97883.27;238530;1191;139968;-57
2022/09/18 04:40:57;;;;;;;8.20;3.70;;;;;;;12.25;65.61;97891.64;238524;1191;139493;-57
2022/09/18 04:46:00;;;;;;;7.20;3.60;;;;;;;12.20;65.50;97897.05;238495;1190;138607;-57
2022/09/18 04:51:04;;;;;;;9.00;3.10;;;;;;;12.15;65.52;97897.52;238340;1191;139657;-56
2022/09/18 04:56:21;;;;;;;9.00;3.70;;;;;;;12.17;65.53;97900.73;238441;1192;139884;-57
2022/09/18 05:01:27;;;;;;;15.60;4.60;;;;;;;12.22;65.65;97906.69;238544;1191;139858;-57
2022/09/18 05:06:30;;;;;;;10.50;4.70;;;;;;;12.21;65.51;97908.02;238705;1191;139186;-56
2022/09/18 05:11:34;;;;;;;12.60;4.10;;;;;;;12.18;65.39;97905.63;238425;1191;139586;-57
2022/09/18 05:16:37;;;;;;;9.10;4.10;;;;;;;12.11;65.46;97909.76;238254;1192;139031;-58
2022/09/18 05:22:03;;;;;;;6.30;3.00;;;;;;;12.04;65.40;97911.20;238511;1190;139024;-58
2022/09/18 05:27:09;;;;;;;5.40;3.00;;;;;;;12.02;65.57;97913.21;238604;1191;139603;-58
2022/09/18 05:32:13;;;;;;;6.90;3.00;;;;;;;12.10;65.95;97913.39;238462;1191;140076;-58
2022/09/18 05:37:17;;;;;;;6.90;2.80;;;;;;;12.13;65.85;97919.39;238474;1192;139735;-56
2022/09/18 05:42:23;;;;;;;10.60;3.60;;;;;;;12.15;65.63;97919.04;238691;1190;139315;-57
2022/09/18 05:47:27;;;;;;;9.20;2.70;;;;;;;12.18;65.47;97918.77;238670;1190;141632;-56
2022/09/18 05:52:30;;;;;;;7.00;2.60;;;;;;;12.13;65.35;97924.67;238691;1191;139619;-57
2022/09/18 05:57:33;;;;;;;11.10;3.20;;;;;;;12.10;65.15;97923.20;238594;1191;140867;-57
2022/09/18 06:02:35;;;;;;;5.90;2.50;;;;;;;12.08;65.17;97926.32;238570;1191;139815;-58
2022/09/18 06:07:45;;;;;;;5.50;2.80;;;;;;;12.07;65.09;97929.83;238528;1190;139935;-57
2022/09/18 06:13:04;;;;;;;5.90;2.90;;;;;;;12.02;65.08;97928.83;238469;1190;140080;-58
2022/09/18 06:18:08;;;;;;;6.00;3.10;;;;;;;12.00;65.35;97932.17;238689;1191;140808;-57
2022/09/18 06:23:12;;;;;;;8.40;3.40;;;;;;;12.01;65.18;97929.14;238603;1191;139229;-57
2022/09/18 06:28:27;;;;;;;7.80;3.40;;;;;;;12.11;65.40;97933.79;238704;1191;140507;-57
2022/09/18 06:33:31;;;;;;;4.90;3.00;;;;;;;12.24;65.41;97939.74;238644;1190;141657;-58
2022/09/18 06:38:34;;;;;;;8.30;3.10;;;;;;;12.29;65.21;97939.13;238649;1192;139202;-58
2022/09/18 06:43:37;;;;;;;4.70;2.90;;;;;;;12.35;65.38;97947.35;238715;1192;139382;-54
2022/09/18 06:48:59;;;;;;;6.50;3.10;;;;;;;12.34;64.91;97947.63;238633;1191;139527;-56
2022/09/18 06:54:02;;;;;;;4.30;2.60;;;;;;;12.30;64.85;97945.80;238681;1191;139359;-56
2022/09/18 06:59:06;;;;;;;7.30;3.60;;;;;;;12.33;64.89;97945.94;238556;1191;138878;-55
2022/09/18 07:04:10;;;;;;;5.30;2.20;;;;;;;12.41;64.90;97944.71;238465;1191;140664;-57
2022/09/18 07:09:17;;;;;;;3.30;1.80;;;;;;;12.51;64.62;97948.07;238623;1190;140126;-56
2022/09/18 07:14:45;;;;;;;5.80;2.10;;;;;;;12.54;64.57;97950.59;238549;1191;238363;-55
2022/09/18 07:19:49;;;;;;;4.60;2.50;;;;;;;12.53;64.34;97957.67;238400;1192;140253;-56
2022/09/18 07:24:53;;;;;;;5.30;2.80;;;;;;;12.54;64.23;97956.13;238473;1191;139237;-57
2022/09/18 07:29:57;;;;;;;4.00;2.10;;;;;;;12.58;64.18;97958.83;238751;1191;139245;-57
2022/09/18 07:35:00;;;;;;;5.50;2.00;;;;;;;12.57;63.88;97959.48;238226;1191;139560;-56
2022/09/18 07:40:07;;;;;;;;;;;;;;;12.61;63.92;97956.97;238302;1191;139840;-56
2022/09/18 07:45:29;;;;;;;4.60;1.90;;;;;;;12.68;63.93;97957.95;238635;1191;126362;-55
2022/09/18 07:50:33;;;;;;;5.70;1.90;;;;;;;12.77;63.95;97955.73;238455;1191;139480;-56
2022/09/18 07:55:37;;;;;;;6.50;2.20;;;;;;;12.85;63.68;97953.80;238670;1191;139175;-57
2022/09/18 08:00:40;;;;;;;6.70;1.90;;;;;;;12.94;63.91;97956.01;238807;1191;138946;-56
2022/09/18 08:05:44;;;;;;;2.70;1.50;;;;;;;12.91;63.45;97959.14;238641;1191;139478;-57
2022/09/18 08:10:48;;;;;;;2.90;1.50;;;;;;;12.89;63.35;97962.52;238505;1191;139118;-55
2022/09/18 08:16:09;;;;;;;4.20;1.60;;;;;;;12.91;63.41;97965.21;238692;1190;139456;-55
2022/09/18 08:21:30;;;;;;;4.30;1.30;;;;;;;12.89;63.06;97964.14;238523;1190;139081;-57
2022/09/18 08:26:37;;;;;;;3.90;1.30;;;;;;;12.92;62.88;97958.48;238440;1191;141359;-56
2022/09/18 08:31:42;;;;;;;2.10;1.30;;;;;;;12.96;63.05;97960.45;238540;1191;139402;-56
2022/09/18 08:36:46;;;;;;;2.10;1.20;;;;;;;13.00;62.71;97959.94;238384;1191;139630;-57
2022/09/18 08:42:04;;;;;;;2.50;1.10;;;;;;;13.09;62.58;97958.48;238485;1192;139055;-56
2022/09/18 08:47:21;;;;;;;4.70;1.70;;;;;;;13.15;62.46;97958.05;238663;1191;140648;-55
2022/09/18 08:52:31;;;;;;;3.10;1.30;;;;;;;13.17;62.27;97956.13;238534;1191;140160;-56
2022/09/18 08:57:45;;;;;;;2.20;1.40;;;;;;;13.09;62.26;97953.31;238647;1191;139236;-57
2022/09/18 09:03:14;;;;;;;2.10;1.00;;;;;;;13.26;63.54;97953.13;238580;1191;139962;-57
2022/09/18 09:08:30;;;;;;;1.80;1.00;;;;;;;13.30;62.39;97956.02;238588;1191;140239;-57
2022/09/18 09:13:54;;;;;;;2.70;1.50;;;;;;;13.42;62.44;97954.01;238545;1191;140900;-59
2022/09/18 09:19:15;;;;;;;2.50;1.00;;;;;;;13.52;62.09;97943.18;238567;1190;138621;-58
2022/09/18 09:24:30;;;;;;;6.20;4.60;;;;;;;13.51;61.52;97946.07;238815;1190;139051;-56
2022/09/18 09:29:43;;;;;;;3.00;1.30;;;;;;;13.46;61.47;97943.65;238622;1191;139010;-58
2022/09/18 09:35:15;;;;;;;2.70;1.00;;;;;;;13.44;61.15;97946.34;238432;1191;139161;-59
2022/09/18 09:40:34;;;;;;;2.90;1.00;;;;;;;13.35;60.99;97942.02;238359;1192;139525;-55
2022/09/18 09:45:45;;;;;;;2.20;1.00;;;;;;;13.26;61.19;97951.36;238402;1190;139689;-58
2022/09/18 09:50:56;;;;;;;1.80;1.10;;;;;;;13.21;61.84;97946.44;238731;1191;138879;-55
2022/09/18 09:56:13;;;;;;;1.70;0.80;;;;;;;13.26;61.90;97954.21;238026;1190;139841;-57
2022/09/18 10:01:47;;;;;;;1.40;1.00;;;;;;;13.45;62.15;97956.11;237816;1190;139988;-58
2022/09/18 10:07:16;;;;;;;1.40;1.10;;;;;;;13.72;62.11;97950.55;238322;1190;139084;-58
2022/09/18 10:12:40;;;;;;;2.10;1.00;;;;;;;13.84;61.79;97951.29;238596;1191;139052;-58
2022/09/18 10:17:47;;;;;;;2.30;1.20;;;;;;;13.70;61.16;97956.60;238700;1191;139704;-57
2022/09/18 10:22:50;;;;;;;2.90;1.20;;;;;;;13.60;61.43;97957.92;238368;1190;139078;-57
2022/09/18 10:27:54;;;;;;;1.30;0.90;;;;;;;13.68;61.24;97957.55;238760;1190;139021;-57
2022/09/18 10:32:58;;;;;;;1.90;0.90;;;;;;;13.66;61.01;97962.59;238434;1191;139329;-57
2022/09/18 10:38:28;;;;;;;1.90;0.90;;;;;;;13.68;60.91;97964.98;238455;1192;139363;-58
2022/09/18 10:43:33;;;;;;;3.10;1.10;;;;;;;13.74;60.65;97974.64;238334;1191;139274;-59
2022/09/18 10:48:42;;;;;;;1.10;0.80;;;;;;;13.72;60.50;97977.08;238489;1190;139590;-58
2022/09/18 10:54:00;;;;;;;1.30;0.80;;;;;;;13.70;60.54;97975.67;238624;1190;139739;-58
2022/09/18 10:59:27;;;;;;;3.40;1.00;;;;;;;13.76;60.72;97975.36;238543;1190;138964;-60
2022/09/18 11:04:32;;;;;;;1.80;1.10;;;;;;;13.94;60.55;97972.77;237790;1192;138757;-59
2022/09/18 11:09:39;;;;;;;3.20;1.40;;;;;;;14.16;60.72;97962.69;238307;1191;139342;-59
2022/09/18 11:14:48;;;;;;;2.00;1.00;;;;;;;14.43;60.57;97953.91;237821;1190;138668;-59
2022/09/18 11:19:57;;;;;;;2.00;1.00;;;;;;;14.53;59.98;97964.06;238612;1191;139287;-59
2022/09/18 11:25:23;;;;;;;1.40;0.80;;;;;;;14.46;59.70;97969.27;238596;1191;139498;-58
2022/09/18 11:30:34;;;;;;;1.90;0.90;;;;;;;14.24;59.68;97982.65;238723;1190;139995;-57
2022/09/18 11:35:53;;;;;;;2.70;1.20;;;;;;;14.05;59.95;97985.38;238576;1190;139003;-59
2022/09/18 11:41:00;;;;;;;1.50;1.00;;;;;;;13.93;60.45;97998.39;238206;1192;138947;-58
2022/09/18 11:46:46;;;;;;;2.20;1.10;;;;;;;13.90;60.92;98005.95;238198;1192;140177;-58
2022/09/18 11:51:59;;;;;;;2.20;1.00;;;;;;;13.86;61.10;98008.49;238654;1190;139731;-58
2022/09/18 11:57:19;;;;;;;3.30;1.30;;;;;;;13.69;61.20;98007.70;238172;1191;140028;-58
2022/09/18 12:02:35;;;;;;;5.30;0.80;;;;;;;13.72;61.82;98005.95;238423;1191;139317;-57
2022/09/18 12:07:44;;;;;;;;;;;;;;;13.92;62.30;98003.48;238532;1191;139162;-57
2022/09/18 12:13:18;;;;;;;4.10;1.10;;;;;;;14.08;62.14;98002.86;238706;1190;126607;-58
2022/09/18 12:18:26;;;;;;;1.00;0.60;;;;;;;14.13;62.03;98007.37;238518;1190;138742;-59
2022/09/18 12:23:30;;;;;;;0.90;0.80;;;;;;;14.10;61.80;98007.29;238486;1191;140319;-58
2022/09/18 12:28:58;;;;;;;1.40;0.90;;;;;;;13.97;61.70;98013.16;238033;1192;141883;-58
2022/09/18 12:34:38;;;;;;;1.60;0.90;;;;;;;13.83;61.75;98014.48;238098;1190;138951;-58
2022/09/18 12:39:59;;;;;;;1.50;1.00;;;;;;;13.76;62.16;98013.48;238005;1190;139497;-56
2022/09/18 12:45:14;;;;;;;1.40;1.00;;;;;;;13.73;62.09;98014.65;238688;1191;141822;-57
2022/09/18 12:50:33;;;;;;;1.10;0.90;;;;;;;13.66;62.12;98023.29;238051;1192;139463;-57
2022/09/18 12:55:52;;;;;;;1.50;1.00;;;;;;;13.55;62.15;98025.36;238333;1191;139760;-56
2022/09/18 13:01:02;;;;;;;1.90;1.30;;;;;;;13.58;62.51;98023.41;238370;1192;140785;-58
2022/09/18 13:06:11;;;;;;;1.10;0.90;;;;;;;13.64;62.88;98022.95;237756;1190;140508;-57
2022/09/18 13:11:29;;;;;;;1.70;1.00;;;;;;;13.62;62.75;98034.40;237716;1191;140189;-58
2022/09/18 13:16:39;;;;;;;1.50;0.90;;;;;;;13.50;62.82;98047.73;238495;1191;139336;-59
2022/09/18 13:21:43;;;;;;;2.30;1.40;;;;;;;13.40;63.05;98052.58;238446;1191;139825;-58
2022/09/18 13:26:49;;;;;;;1.30;0.70;;;;;;;13.33;63.20;98068.84;238306;1190;139000;-58
2022/09/18 13:31:52;;;;;;;0.90;0.60;;;;;;;13.26;62.80;98066.45;238478;1192;139683;-58
2022/09/18 13:37:05;;;;;;;0.50;0.40;;;;;;;13.23;62.89;98066.36;238253;1191;139127;-59
2022/09/18 13:42:08;;;;;;;1.10;0.80;;;;;;;13.24;62.88;98063.23;238025;1191;139148;-58
2022/09/18 13:47:13;;;;;;;1.50;0.60;;;;;;;13.27;62.98;98064.64;237534;1190;139497;-57
2022/09/18 13:52:28;;;;;;;1.80;0.90;;;;;;;13.22;62.64;98063.96;238446;1191;139014;-57
2022/09/18 13:57:33;;;;;;;1.20;0.80;;;;;;;13.17;62.97;98070.41;238553;1191;140092;-58
2022/09/18 14:02:38;;;;;;;1.50;0.60;;;;;;;13.22;63.30;98073.02;238507;1190;139817;-57
2022/09/18 14:07:53;;;;;;;3.80;1.20;;;;;;;13.31;63.46;98075.49;238598;1190;139451;-58
2022/09/18 14:13:17;;;;;;;1.10;0.70;;;;;;;13.34;63.25;98076.41;238538;1190;138824;-57
2022/09/18 14:18:25;;;;;;;1.10;0.90;;;;;;;13.41;63.54;98085.80;238576;1191;138950;-59
2022/09/18 14:23:39;;;;;;;1.90;1.00;;;;;;;13.41;63.28;98086.71;237973;1190;138667;-57
2022/09/18 14:28:46;;;;;;;1.80;1.40;;;;;;;13.39;63.46;98085.80;238735;1190;139131;-58
2022/09/18 14:33:49;;;;;;;1.70;1.30;;;;;;;13.42;63.54;98091.96;238392;1192;139921;-57
2022/09/18 14:38:52;;;;;;;1.60;0.90;;;;;;;13.41;63.18;98091.36;237980;1190;141748;-57
2022/09/18 14:44:00;;;;;;;1.90;1.00;;;;;;;13.36;63.08;98086.80;238485;1190;139442;-58
2022/09/18 14:49:24;;;;;;;1.40;0.80;;;;;;;13.33;63.32;98092.73;238697;1190;139215;-57
2022/09/18 14:54:30;;;;;;;1.70;0.90;;;;;;;13.27;63.12;98102.19;238524;1190;139392;-58
2022/09/18 14:59:33;;;;;;;1.30;0.90;;;;;;;13.19;63.40;98107.84;237878;1192;138926;-58
2022/09/18 15:04:36;;;;;;;2.20;0.90;;;;;;;13.15;63.56;98110.69;238540;1190;138696;-56
2022/09/18 15:09:40;;;;;;;1.80;1.00;;;;;;;13.18;63.79;98112.41;238428;1190;140583;-56
2022/09/18 15:14:43;;;;;;;1.70;1.20;;;;;;;13.20;63.72;98115.73;237929;1190;139595;-55
2022/09/18 15:19:59;;;;;;;2.60;1.60;;;;;;;13.11;63.57;98122.42;237844;1191;139217;-57
2022/09/18 15:25:02;;;;;;;3.70;1.40;;;;;;;13.03;63.67;98125.05;237901;1190;139100;-59
2022/09/18 15:30:15;;;;;;;2.90;1.40;;;;;;;12.99;63.83;98125.78;237241;1190;139918;-60
2022/09/18 15:35:25;;;;;;;3.50;1.60;;;;;;;12.97;63.82;98130.98;237752;1190;139969;-55
2022/09/18 15:40:35;;;;;;;6.00;2.10;;;;;;;12.98;63.82;98135.99;238319;1192;140668;-59
2022/09/18 15:45:59;;;;;;;4.70;2.00;;;;;;;12.98;63.55;98140.83;238355;1190;139305;-58
2022/09/18 15:51:07;;;;;;;4.70;1.90;;;;;;;13.00;63.64;98137.83;238551;1190;140282;-58
2022/09/18 15:56:19;;;;;;;5.90;2.00;;;;;;;12.98;63.66;98138.33;238233;1190;138822;-59
2022/09/18 16:01:34;;;;;;;5.80;2.00;;;;;;;12.97;63.58;98139.33;238445;1191;139215;-60
2022/09/18 16:06:46;;;;;;;4.60;2.00;;;;;;;12.92;63.22;98138.63;238563;1190;138966;-58
2022/09/18 16:11:50;;;;;;;5.10;2.30;;;;;;;12.88;63.47;98141.84;238355;1190;139865;-58
2022/09/18 16:16:53;;;;;;;5.70;2.10;;;;;;;12.92;63.43;98146.50;238373;1191;140246;-57
2022/09/18 16:21:56;;;;;;;5.50;2.30;;;;;;;12.99;63.76;98145.39;238245;1192;139361;-57
2022/09/18 16:27:05;;;;;;;5.10;2.50;;;;;;;13.01;63.70;98145.54;238606;1191;139723;-56
2022/09/18 16:32:10;;;;;;;8.60;2.50;;;;;;;13.02;63.62;98152.71;238036;1190;139385;-57
2022/09/18 16:37:15;;;;;;;3.90;2.10;;;;;;;12.97;63.45;98152.85;238198;1190;139481;-56
2022/09/18 16:42:18;;;;;;;;;;;;;;;12.91;63.27;98146.95;238643;1191;139052;-58
2022/09/18 16:47:25;;;;;;;8.80;2.70;;;;;;;12.82;63.68;98145.62;237858;1192;125182;-58
2022/09/18 16:52:28;;;;;;;7.00;2.40;;;;;;;12.73;63.40;98152.04;238394;1190;140253;-56
2022/09/18 16:57:31;;;;;;;5.90;2.50;;;;;;;12.71;63.47;98151.71;237487;1190;139954;-58
2022/09/18 17:02:35;;;;;;;5.30;2.40;;;;;;;12.72;63.78;98150.00;236936;1192;140560;-58
2022/09/18 17:07:41;;;;;;;5.80;2.80;;;;;;;12.76;63.72;98154.83;238010;1190;139096;-56
2022/09/18 17:12:45;;;;;;;11.20;3.40;;;;;;;12.78;63.82;98155.02;238244;1190;138816;-57
2022/09/18 17:17:51;;;;;;;8.90;3.10;;;;;;;12.76;63.85;98156.95;237781;1192;139643;-57
2022/09/18 17:22:54;;;;;;;7.40;3.10;;;;;;;12.71;63.52;98169.69;237638;1192;140899;-55
2022/09/18 17:27:57;;;;;;;7.50;3.30;;;;;;;12.65;63.56;98176.95;237045;1190;139531;-56
2022/09/18 17:32:59;;;;;;;8.40;3.10;;;;;;;12.55;63.43;98184.39;237221;1190;138957;-57
2022/09/18 17:38:03;;;;;;;7.80;3.30;;;;;;;12.49;63.70;98188.96;237308;1192;139446;-57
2022/09/18 17:43:06;;;;;;;7.40;3.80;;;;;;;12.47;63.65;98193.90;237790;1192;140150;-56
2022/09/18 17:48:09;;;;;;;8.70;3.90;;;;;;;12.46;63.84;98196.70;237346;1191;139470;-58
2022/09/18 17:53:12;;;;;;;13.00;4.40;;;;;;;12.45;64.10;98196.94;237889;1190;139223;-55
2022/09/18 17:58:19;;;;;;;10.00;3.70;;;;;;;12.46;64.07;98202.71;237272;1190;139722;-56
2022/09/18 18:03:22;;;;;;;6.40;3.70;;;;;;;12.46;64.39;98210.40;237854;1191;139516;-56
2022/09/18 18:08:27;;;;;;;6.90;3.50;;;;;;;12.42;64.18;98212.52;238529;1190;138619;-58
2022/09/18 18:13:30;;;;;;;10.20;3.70;;;;;;;12.44;64.14;98208.63;238236;1190;140627;-58
2022/09/18 18:18:33;;;;;;;9.30;5.10;;;;;;;12.46;64.15;98210.02;238534;1190;140734;-56
2022/09/18 18:23:39;;;;;;;9.80;3.90;;;;;;;12.48;64.05;98211.07;238257;1190;139156;-57
2022/09/18 18:28:44;;;;;;;9.20;3.90;;;;;;;12.48;63.99;98206.94;238486;1192;139394;-54
2022/09/18 18:33:46;;;;;;;7.70;4.30;;;;;;;12.47;64.20;98204.42;238269;1190;139931;-56
2022/09/18 18:38:52;;;;;;;10.10;4.20;;;;;;;12.47;64.04;98201.96;237897;1191;139400;-54
2022/09/18 18:43:57;;;;;;;10.60;4.50;;;;;;;12.44;64.18;98201.09;238055;1192;139792;-55
2022/09/18 18:49:07;;;;;;;8.40;3.90;;;;;;;12.38;63.97;98201.06;238269;1190;139207;-57
2022/09/18 18:54:13;;;;;;;11.80;4.10;;;;;;;12.35;63.85;98197.11;237828;1190;140883;-58
2022/09/18 18:59:18;;;;;;;7.70;3.60;;;;;;;12.36;64.24;98197.84;238401;1190;140530;-58
2022/09/18 19:04:21;;;;;;;7.40;3.70;;;;;;;12.36;63.92;98200.52;238106;1191;138711;-57
2022/09/18 19:09:27;;;;;;;7.80;3.90;;;;;;;12.34;64.20;98214.55;237784;1191;139130;-56
2022/09/18 19:14:32;;;;;;;8.80;3.60;;;;;;;12.33;64.22;98206.83;238112;1190;140325;-59
2022/09/18 19:19:35;;;;;;;6.90;3.00;;;;;;;12.30;64.32;98199.95;238371;1191;139261;-58
2022/09/18 19:24:38;;;;;;;5.70;3.20;;;;;;;12.26;64.47;98208.48;238468;1191;138723;-59
2022/09/18 19:29:41;;;;;;;6.00;3.60;;;;;;;12.20;64.48;98211.45;238403;1191;139327;-57
2022/09/18 19:34:44;;;;;;;5.60;3.50;;;;;;;12.22;64.39;98201.88;238611;1190;139846;-59
2022/09/18 19:39:49;;;;;;;6.70;3.80;;;;;;;12.25;64.29;98199.49;238554;1191;139560;-59
2022/09/18 19:44:54;;;;;;;10.00;3.90;;;;;;;12.24;64.63;98202.63;238364;1191;140309;-57
2022/09/18 19:50:00;;;;;;;8.20;4.30;;;;;;;12.27;64.66;98198.75;238493;1191;140580;-58
2022/09/18 19:55:04;;;;;;;8.60;4.40;;;;;;;12.25;64.43;98202.86;238719;1190;139735;-57
2022/09/18 20:00:08;;;;;;;7.80;4.60;;;;;;;12.16;64.48;98200.73;238593;1190;139598;-58
2022/09/18 20:05:13;;;;;;;8.70;5.10;;;;;;;12.13;64.51;98203.70;238352;1191;139369;-59
2022/09/18 20:10:17;;;;;;;10.30;4.80;;;;;;;12.10;64.68;98202.86;238482;1190;139631;-60
2022/09/18 20:15:20;;;;;;;7.70;4.50;;;;;;;12.16;64.67;98200.76;238533;1190;139913;-58
2022/09/18 20:20:24;;;;;;;10.40;5.10;;;;;;;12.20;64.77;98194.53;238435;1191;140380;-58
2022/09/18 20:25:27;;;;;;;8.00;4.80;;;;;;;12.20;64.67;98192.65;238442;1191;139643;-58
2022/09/18 20:30:30;;;;;;;8.70;5.00;;;;;;;12.16;64.60;98197.02;238636;1192;139101;-58
2022/09/18 20:35:35;;;;;;;8.60;4.80;;;;;;;12.11;64.62;98199.58;237712;1192;140334;-57
2022/09/18 20:40:40;;;;;;;7.10;4.30;;;;;;;12.03;64.58;98199.86;238326;1192;140889;-57
2022/09/18 20:45:43;;;;;;;10.40;4.60;;;;;;;11.96;64.30;98194.72;238260;1191;140907;-57
2022/09/18 20:50:45;;;;;;;9.70;4.50;;;;;;;11.93;64.70;98194.13;238451;1190;139205;-58
2022/09/18 20:55:50;;;;;;;8.50;4.00;;;;;;;11.95;64.53;98194.09;238639;1190;140099;-58
2022/09/18 21:00:53;;;;;;;9.40;4.50;;;;;;;11.96;64.63;98189.59;238387;1191;139609;-58
2022/09/18 21:05:59;;;;;;;9.40;4.80;;;;;;;11.93;64.32;98182.70;238497;1192;139218;-59
2022/09/18 21:11:26;;;;;;;8.80;4.90;;;;;;;11.92;64.42;98179.41;238439;1190;139460;-58
2022/09/18 21:16:32;;;;;;;10.70;4.80;;;;;;;11.87;64.31;98177.87;238543;1190;139308;-56
2022/09/18 21:21:35;;;;;;;;;;;;;;;11.83;64.21;98178.36;238341;1190;139086;-57
2022/09/18 21:26:48;;;;;;;7.80;4.80;;;;;;;11.83;65.00;98182.10;238557;1191;126232;-58
2022/09/18 21:31:54;;;;;;;10.90;4.60;;;;;;;11.80;64.53;98177.52;238645;1190;139346;-57
2022/09/18 21:37:00;;;;;;;7.90;4.50;;;;;;;11.77;64.42;98163.16;238699;1190;139928;-55
2022/09/18 21:41:26;;;;;;;12.10;4.80;;;;;;;11.74;64.30;98157.09;22770;1209;648343;-58
2022/09/18 21:42:03;;;;;;;8.30;4.30;;;;;;;11.70;64.41;98154.91;23615;1196;107819;-57
2022/09/18 21:42:37;;;;;;;8.80;4.70;;;;;;;11.70;64.08;98159.16;23492;1195;162275;-57
2022/09/18 21:42:56;;;;;;;7.60;4.90;;;;;;;11.72;64.34;98158.81;7214;1224;664228;-57
2022/09/18 21:43:08;;;;;;;6.50;4.00;;;;;;;11.69;64.35;98157.79;7616;1214;136627;-56
2022/09/18 21:43:22;;;;;;;4.50;3.60;;;;;;;11.67;64.24;98154.64;7841;1196;110567;-57
2022/09/18 21:43:39;;;;;;;8.00;4.40;;;;;;;11.69;64.38;98153.20;7781;1209;107279;-58
2022/09/18 21:48:55;;;;;;;9.60;4.50;;;;;;;11.67;64.24;98156.86;234656;1208;634878;-55
2022/09/18 21:53:58;;;;;;;9.20;4.50;;;;;;;11.41;64.63;98154.36;237400;1195;138279;-59
2022/09/18 21:59:01;;;;;;;10.30;4.50;;;;;;;11.18;64.92;98155.63;237407;1195;138652;-58
2022/09/18 22:04:06;;;;;;;9.30;4.90;;;;;;;11.01;64.90;98157.67;238341;1192;138099;-57
2022/09/18 22:09:12;;;;;;;7.10;4.80;;;;;;;10.81;65.26;98152.48;238150;1192;138197;-55
2022/09/18 22:14:23;;;;;;;8.00;4.70;;;;;;;10.62;65.58;98157.13;238105;1192;138655;-56
2022/09/18 22:19:26;;;;;;;8.10;4.40;;;;;;;10.52;65.96;98152.78;238203;1193;139929;-57
2022/09/18 22:24:29;;;;;;;10.10;5.10;;;;;;;10.48;66.00;98148.69;238329;1193;138930;-57
2022/09/18 22:29:34;;;;;;;7.20;4.40;;;;;;;10.45;66.44;98147.33;237768;1193;139027;-56
2022/09/18 22:34:39;;;;;;;7.30;4.40;;;;;;;10.40;66.61;98146.24;237432;1193;138887;-56
2022/09/18 22:39:42;;;;;;;10.90;5.20;;;;;;;10.35;66.51;98143.99;238130;1193;139718;-56
2022/09/18 22:44:45;;;;;;;7.20;4.30;;;;;;;10.34;67.15;98145.30;238188;1193;139378;-55
2022/09/18 22:49:48;;;;;;;10.50;4.90;;;;;;;10.33;67.29;98149.20;237568;1193;138657;-55
2022/09/18 22:54:51;;;;;;;8.00;3.90;;;;;;;10.30;67.11;98147.88;237996;1193;139250;-56
2022/09/18 22:59:54;;;;;;;8.10;4.20;;;;;;;10.33;67.35;98136.86;238216;1193;142124;-56
2022/09/18 23:04:57;;;;;;;9.60;4.10;;;;;;;10.38;67.29;98133.45;238097;1193;138870;-57
2022/09/18 23:10:00;;;;;;;8.90;4.00;;;;;;;10.43;67.71;98135.52;237628;1193;138942;-59